• Join FlightAware (Why Join?)
  • Login
  • US Flag 
04:38AM EDT


 

Airport Tracker/Info


-or-


 

Live Flight TrackerFlight Track Log ✈ CSN6404 ✈ 26-Apr-2012 ✈ ZPPP / KMG - ZUCK / CKG

Flight Track Log - Related Links

Times and Time Zones

All times are in EDT time to prevent confusion due to time zone crossing. See the CSN6404 flight status page for this flight to view local times or setup timezone preferences in your user account.

Time Position Orientation Groundspeed Altitude Reporting Facility
EDT Latitude Longitude Course Direction KTS MPH feet Rate Location/Type
03:54AM 27.3303 104.6184 36° Northeast  Level Estimated
03:55AM 27.4827 104.7441 36° Northeast  Level Estimated
03:56AM 27.6350 104.8701 36° Northeast  Level Estimated
03:57AM 27.7872 104.9964 36° Northeast  Level Estimated
03:58AM 27.9393 105.1231 36° Northeast  Level Estimated
03:59AM 28.0913 105.2502 36° Northeast  Level Estimated
04:00AM 28.2432 105.3776 37° Northeast  Level Estimated
04:01AM 28.3949 105.5053 37° Northeast  Level Estimated
04:02AM 28.5465 105.6335 37° Northeast  Level Estimated
04:03AM 28.6980 105.7620 37° Northeast  Level Estimated
04:04AM 28.8494 105.8909 37° Northeast  Level Estimated
04:05AM 29.0007 106.0201 37° Northeast  Level Estimated
04:06AM 29.1518 106.1497 37° Northeast  Level Estimated
04:07AM 29.3028 106.2798 37° Northeast  Level Estimated
04:08AM 29.4537 106.4102 37° Northeast  Level Estimated
04:09AM 29.6044 106.5409 37° Northeast  Level Estimated
04:10AM 29.7550 106.6721 217° Southwest  Level Estimated
04:11AM 29.6044 106.5409 37° Northeast  Level Estimated
04:12AM 29.7550 106.6721 217° Southwest  Level Estimated
04:13AM 29.6044 106.5409 37° Northeast  Level Estimated
04:14AM 29.7550 106.6721 217° Southwest  Level Estimated
04:15AM 29.6044 106.5409 37° Northeast  Level Estimated
04:16AM 29.7550 106.6721 217° Southwest  Level Estimated
04:17AM 29.6044 106.5409 37° Northeast  Level Estimated
04:18AM 29.7550 106.6721 217° Southwest  Level Estimated
04:19AM 29.6044 106.5409 37° Northeast  Level Estimated
04:20AM 29.7550 106.6721 217° Southwest  Level Estimated
04:21AM 29.6044 106.5409 37° Northeast  Level Estimated
04:22AM 29.7550 106.6721 217° Southwest  Level Estimated
04:23AM 29.6044 106.5409 37° Northeast  Level Estimated
04:24AM 29.7550 106.6721 217° Southwest  Level Estimated
04:25AM 29.6044 106.5409 217° Southwest  Level Estimated